Time;durP1;ratioP1;P1;durP2;ratioP2;P2;SDS_P1;SDS_P2;PMS_P1;PMS_P2;Temp;Humidity;BMP_temperature;BMP_pressure;BME280_temperature;BME280_humidity;BME280_pressure;Samples;Min_cycle;Max_cycle;Signal;HPM_P1;HPM_P2
2023/03/29 00:00:12;;;;;;;5.77;2.83;;;;;;;1.78;62.79;95190.78;5029275;28;20653;-77
2023/03/29 00:02:41;;;;;;;4.00;2.70;;;;;;;1.93;62.51;95201.44;5030137;28;20933;-76
2023/03/29 00:05:09;;;;;;;5.15;2.92;;;;;;;1.96;62.11;95206.34;5030669;28;20441;-76
2023/03/29 00:07:35;;;;;;;3.25;2.78;;;;;;;2.04;62.39;95203.81;5029744;28;20426;-76
2023/03/29 00:10:03;;;;;;;10.07;2.93;;;;;;;2.05;62.35;95213.25;5031805;28;20179;-77
2023/03/29 00:12:29;;;;;;;4.90;2.70;;;;;;;1.97;61.80;95189.00;5031026;28;20436;-77
2023/03/29 00:14:54;;;;;;;4.72;3.15;;;;;;;1.95;62.37;95212.50;5030715;28;20439;-76
2023/03/29 00:17:20;;;;;;;5.30;3.00;;;;;;;1.71;62.21;95215.69;5030947;28;20447;-76
2023/03/29 00:19:45;;;;;;;3.37;2.90;;;;;;;1.51;63.00;95185.66;5031412;28;20186;-76
2023/03/29 00:22:11;;;;;;;3.53;2.40;;;;;;;1.70;63.00;95218.44;5031440;28;20263;-76
2023/03/29 00:24:37;;;;;;;4.00;2.83;;;;;;;1.73;63.00;95198.19;5030011;28;20413;-76
2023/03/29 00:27:02;;;;;;;4.72;3.00;;;;;;;1.70;62.71;95193.31;5030060;28;20404;-76
2023/03/29 00:29:28;;;;;;;5.85;3.20;;;;;;;1.87;61.61;95221.03;5029928;28;20423;-76
2023/03/29 00:31:54;;;;;;;3.63;3.20;;;;;;;1.84;61.14;95216.13;5031631;28;20295;-77
2023/03/29 00:34:21;;;;;;;5.23;2.93;;;;;;;1.92;61.21;95211.97;5031514;28;20660;-76
2023/03/29 00:36:49;;;;;;;6.03;2.90;;;;;;;1.93;60.69;95216.22;5031087;28;20453;-76
2023/03/29 00:39:16;;;;;;;3.80;2.78;;;;;;;1.89;60.50;95219.13;5029509;28;20421;-77
2023/03/29 00:41:47;;;;;;;4.05;2.90;;;;;;;1.98;59.92;95219.19;5030305;28;20432;-77
2023/03/29 00:44:50;;;;;;;4.18;2.83;;;;;;;1.84;60.12;95216.13;5029377;28;20433;-77
2023/03/29 00:47:17;;;;;;;6.10;3.00;;;;;;;1.93;60.47;95219.63;5030149;28;20428;-77
2023/03/29 00:49:44;;;;;;;6.07;2.83;;;;;;;1.94;60.76;95212.66;5029310;28;20480;-77
2023/03/29 00:52:12;;;;;;;3.60;3.30;;;;;;;1.82;60.22;95207.69;5031162;28;20195;-77
2023/03/29 00:54:42;;;;;;;4.82;2.72;;;;;;;1.92;60.35;95219.75;5030700;28;20492;-76
2023/03/29 00:57:09;;;;;;;5.00;3.00;;;;;;;1.92;60.53;95214.56;5030435;28;20408;-76
2023/03/29 00:59:34;;;;;;;7.10;3.00;;;;;;;1.76;60.71;95197.91;5031197;28;20176;-76
2023/03/29 01:02:02;;;;;;;3.40;2.97;;;;;;;1.87;60.40;95220.22;5031385;28;20172;-77
2023/03/29 01:04:31;;;;;;;3.47;3.08;;;;;;;1.84;61.11;95213.53;5029735;28;20413;-77
2023/03/29 01:07:06;;;;;;;3.70;3.10;;;;;;;1.84;61.61;95218.72;5030093;28;20453;-77
2023/03/29 01:09:36;;;;;;;3.07;2.73;;;;;;;1.80;61.75;95216.59;5031240;28;20202;-77
2023/03/29 01:12:09;;;;;;;3.07;2.70;;;;;;;1.78;60.97;95224.53;5031151;28;20208;-77
2023/03/29 01:14:47;;;;;;;5.88;3.25;;;;;;;1.76;61.47;95231.63;5030622;28;20416;-76
2023/03/29 01:17:13;;;;;;;5.32;3.30;;;;;;;1.78;61.88;95237.50;5030929;28;20447;-77
2023/03/29 01:19:49;;;;;;;4.93;3.10;;;;;;;1.58;61.22;95228.19;5032368;28;20420;-76
2023/03/29 01:22:29;;;;;;;9.48;3.28;;;;;;;1.47;61.65;95238.81;5033405;28;20404;-76
2023/03/29 01:25:25;;;;;;;3.10;2.80;;;;;;;1.44;62.13;95213.16;5033194;28;20470;-76
2023/03/29 01:27:55;;;;;;;3.40;2.83;;;;;;;1.65;61.61;95238.81;5034707;28;20172;-76
2023/03/29 01:30:39;;;;;;;5.82;3.20;;;;;;;1.73;61.85;95241.50;5032916;28;20428;-76
2023/03/29 01:33:22;;;;;;;8.82;3.15;;;;;;;1.69;60.16;95242.75;5032456;28;21039;-76
2023/03/29 01:35:58;;;;;;;3.85;2.58;;;;;;;1.74;59.88;95246.53;5033713;28;20417;-76
2023/03/29 01:38:34;;;;;;;5.68;3.20;;;;;;;1.74;60.18;95243.09;5034501;28;20423;-76
2023/03/29 01:41:02;;;;;;;4.32;2.92;;;;;;;1.61;60.21;95214.13;5033406;28;20405;-76
2023/03/29 01:43:42;;;;;;;9.17;3.00;;;;;;;1.76;59.90;95238.59;5034240;28;20229;-76
2023/03/29 01:46:10;;;;;;;3.87;3.10;;;;;;;1.38;60.32;95229.31;5032454;28;20460;-76
2023/03/29 01:48:57;;;;;;;4.03;3.00;;;;;;;1.47;60.94;95229.22;5032867;28;21025;-76
2023/03/29 01:51:35;;;;;;;6.50;3.20;;;;;;;1.55;60.60;95225.91;5034472;28;20302;-76
2023/03/29 01:54:11;;;;;;;6.63;2.85;;;;;;;1.32;60.09;95206.53;5032262;28;20424;-76
2023/03/29 01:56:41;;;;;;;4.73;3.10;;;;;;;1.56;60.58;95229.34;5034009;28;20175;-76
2023/03/29 01:59:11;;;;;;;4.83;3.03;;;;;;;1.68;60.28;95230.75;5034336;28;20211;-76
2023/03/29 02:01:47;;;;;;;4.82;3.33;;;;;;;1.65;60.48;95231.84;5031182;28;20408;-76
2023/03/29 02:04:17;;;;;;;5.40;3.30;;;;;;;1.63;60.51;95238.16;5033978;28;20233;-76
2023/03/29 02:06:44;;;;;;;4.40;2.80;;;;;;;1.57;60.23;95234.34;5033984;28;20926;-76
2023/03/29 02:09:11;;;;;;;5.97;3.63;;;;;;;1.55;60.46;95233.69;5033549;28;20408;-76
2023/03/29 02:11:37;;;;;;;5.15;3.70;;;;;;;1.50;60.55;95233.31;5032319;28;20431;-76
2023/03/29 02:14:02;;;;;;;5.80;3.60;;;;;;;1.55;60.73;95236.28;5033100;28;20777;-76
2023/03/29 02:16:36;;;;;;;6.75;3.92;;;;;;;1.57;60.07;95230.94;5032341;28;20424;-76
2023/03/29 02:19:02;;;;;;;5.65;3.85;;;;;;;1.35;59.44;95237.38;5033262;28;20415;-76
2023/03/29 02:21:43;;;;;;;5.73;3.70;;;;;;;1.27;60.63;95243.28;5032352;28;20409;-76
2023/03/29 02:24:12;;;;;;;5.85;4.07;;;;;;;1.23;59.99;95246.28;5032045;28;20429;-76
2023/03/29 02:26:38;;;;;;;6.77;3.50;;;;;;;1.06;60.38;95219.34;5033800;28;20172;-77
2023/03/29 02:29:03;;;;;;;3.80;3.37;;;;;;;1.33;60.13;95253.06;5033797;28;20179;-77
2023/03/29 02:31:52;;;;;;;5.23;3.57;;;;;;;1.29;60.38;95249.13;5033490;28;20196;-77
2023/03/29 02:34:37;;;;;;;4.85;3.92;;;;;;;1.07;60.54;95252.91;5047370;28;20804;-77
2023/03/29 02:37:10;;;;;;;4.33;3.93;;;;;;;1.00;61.60;95251.84;5031731;28;20962;-77
2023/03/29 02:39:37;;;;;;;4.75;3.33;;;;;;;0.92;61.10;95251.75;5032535;28;20447;-76
2023/03/29 02:42:04;;;;;;;4.43;3.30;;;;;;;1.10;60.77;95257.81;5032560;28;20933;-77
2023/03/29 02:44:32;;;;;;;3.92;3.10;;;;;;;1.04;60.82;95257.56;5032313;28;20421;-77
2023/03/29 02:47:15;;;;;;;4.47;3.65;;;;;;;1.06;60.75;95266.00;5033000;28;20444;-77
2023/03/29 02:49:41;;;;;;;5.82;3.78;;;;;;;0.99;61.31;95252.81;5033413;28;20452;-77
2023/03/29 02:52:33;;;;;;;8.00;3.93;;;;;;;1.07;61.74;95285.78;5031367;28;20436;-77
2023/03/29 02:55:01;;;;;;;6.75;4.53;;;;;;;1.07;60.90;95272.81;5030980;28;20428;-77
2023/03/29 02:57:27;;;;;;;7.50;4.78;;;;;;;1.21;61.67;95284.53;5031618;28;20467;-77
2023/03/29 02:59:54;;;;;;;7.15;4.30;;;;;;;1.26;60.35;95277.13;5032108;28;20824;-77
2023/03/29 03:02:20;;;;;;;5.80;3.50;;;;;;;1.41;61.08;95280.84;5031662;28;20416;-77
2023/03/29 03:04:45;;;;;;;4.30;3.13;;;;;;;1.42;60.95;95285.91;5033399;28;20183;-77
2023/03/29 03:07:11;;;;;;;8.77;3.63;;;;;;;1.39;61.79;95287.97;5031704;28;20440;-77
2023/03/29 03:09:37;;;;;;;6.07;3.60;;;;;;;1.24;61.06;95279.03;5031658;28;20409;-77
2023/03/29 03:12:02;;;;;;;6.97;3.53;;;;;;;1.29;61.95;95285.44;5031448;28;20778;-77
2023/03/29 03:14:28;;;;;;;4.63;3.30;;;;;;;1.21;62.44;95290.50;5031570;28;20451;-77
2023/03/29 03:16:54;;;;;;;6.50;3.10;;;;;;;1.20;62.46;95278.53;5031445;28;20437;-77
2023/03/29 03:19:20;;;;;;;4.50;3.43;;;;;;;1.25;62.18;95302.22;5033101;28;20648;-77
2023/03/29 03:21:46;;;;;;;4.00;3.10;;;;;;;1.16;62.18;95307.44;5026743;28;20695;-77
2023/03/29 03:24:12;;;;;;;6.35;3.20;;;;;;;1.13;61.78;95311.13;5032300;28;20413;-77
2023/03/29 03:26:37;;;;;;;4.55;3.17;;;;;;;1.23;61.71;95313.69;5031351;28;20404;-77
2023/03/29 03:29:03;;;;;;;4.83;3.03;;;;;;;1.14;60.82;95276.47;5031840;28;20434;-77
2023/03/29 03:31:29;;;;;;;4.70;3.37;;;;;;;1.46;61.02;95320.16;5032200;28;20516;-77
2023/03/29 03:33:55;;;;;;;3.50;2.90;;;;;;;1.38;60.16;95318.28;5030437;28;20858;-77
2023/03/29 03:36:24;;;;;;;5.07;3.03;;;;;;;1.45;60.26;95323.72;5019826;28;20425;-77
2023/03/29 03:38:53;;;;;;;7.68;4.05;;;;;;;1.34;60.65;95327.31;5022554;28;20445;-77
2023/03/29 03:41:18;;;;;;;8.68;4.90;;;;;;;1.39;58.95;95319.06;5017864;28;20444;-77
2023/03/29 03:43:47;;;;;;;6.20;4.20;;;;;;;1.35;58.77;95326.34;5017927;28;20441;-75
2023/03/29 03:46:14;;;;;;;11.73;3.83;;;;;;;1.46;58.43;95331.34;5015894;28;20428;-76
2023/03/29 03:48:39;;;;;;;8.23;4.40;;;;;;;1.32;58.81;95333.59;5027220;28;20421;-75
2023/03/29 03:51:05;;;;;;;8.23;4.10;;;;;;;0.91;59.37;95319.25;5030402;28;20443;-76
2023/03/29 03:53:31;;;;;;;8.43;4.88;;;;;;;1.07;59.11;95338.44;5030434;28;20413;-76
2023/03/29 03:55:56;;;;;;;13.87;4.70;;;;;;;1.17;59.78;95330.63;5031220;28;20417;-76
2023/03/29 03:58:22;;;;;;;8.87;4.10;;;;;;;1.18;57.59;95332.28;5030823;28;20412;-76
2023/03/29 04:00:49;;;;;;;9.30;4.60;;;;;;;1.05;58.45;95317.03;5030040;28;20841;-75
2023/03/29 04:03:15;;;;;;;12.17;7.83;;;;;;;1.26;58.37;95331.56;5030046;28;20477;-76
2023/03/29 04:05:43;;;;;;;9.00;5.20;;;;;;;1.23;57.02;95332.66;5026114;28;20484;-76
2023/03/29 04:08:09;;;;;;;6.20;3.60;;;;;;;1.26;58.25;95331.56;5024412;28;20412;-77
2023/03/29 04:10:35;;;;;;;10.07;4.32;;;;;;;1.43;58.23;95333.41;5030552;28;20412;-76
2023/03/29 04:13:01;;;;;;;6.75;4.10;;;;;;;1.51;57.08;95328.31;5030467;28;20866;-77
2023/03/29 04:15:28;;;;;;;7.10;4.23;;;;;;;1.47;57.12;95334.78;5031499;28;20444;-76
2023/03/29 04:17:55;;;;;;;7.28;4.18;;;;;;;1.55;56.92;95342.66;5030987;28;20929;-76
2023/03/29 04:20:21;;;;;;;6.30;3.42;;;;;;;1.56;56.91;95346.84;5031148;28;20937;-78
2023/03/29 04:22:47;;;;;;;6.30;3.70;;;;;;;1.51;57.02;95349.88;5030763;28;20925;-75
2023/03/29 04:25:12;;;;;;;5.43;3.57;;;;;;;1.52;56.90;95343.75;5027633;28;20187;-75
2023/03/29 04:27:38;;;;;;;6.50;3.30;;;;;;;1.52;56.16;95340.34;5030813;28;20191;-75
2023/03/29 04:30:06;;;;;;;4.80;3.33;;;;;;;1.58;56.04;95354.50;5030787;28;20198;-76
2023/03/29 04:32:31;;;;;;;4.77;3.23;;;;;;;1.32;57.38;95357.75;5031327;28;20196;-76
2023/03/29 04:34:57;;;;;;;9.57;4.90;;;;;;;1.35;56.64;95364.44;5029950;28;20651;-76
2023/03/29 04:37:22;;;;;;;7.23;4.20;;;;;;;1.57;57.22;95356.28;5030759;28;20279;-76
2023/03/29 04:39:48;;;;;;;6.27;3.20;;;;;;;1.82;55.78;95334.84;5030894;28;20222;-76
2023/03/29 04:42:14;;;;;;;9.87;3.50;;;;;;;2.46;54.70;95343.44;5030602;28;20700;-76
2023/03/29 04:44:41;;;;;;;10.30;4.50;;;;;;;3.25;52.18;95361.56;5030275;28;20172;-76
2023/03/29 04:47:07;;;;;;;6.80;4.63;;;;;;;3.51;50.59;95366.75;5029820;28;20186;-76
2023/03/29 04:49:32;;;;;;;7.73;4.67;;;;;;;3.89;49.68;95363.69;5030031;28;20183;-76
2023/03/29 04:51:59;;;;;;;8.10;3.10;;;;;;;4.47;48.35;95378.50;5030075;28;20269;-76
2023/03/29 04:54:25;;;;;;;6.63;4.40;;;;;;;4.63;46.59;95382.91;5035659;28;20225;-76
2023/03/29 04:56:51;;;;;;;6.70;3.67;;;;;;;5.13;46.14;95382.75;5036837;28;20187;-76
2023/03/29 04:59:17;;;;;;;6.37;3.77;;;;;;;5.48;44.99;95392.00;5036556;28;20997;-77
2023/03/29 05:01:42;;;;;;;8.67;5.17;;;;;;;6.26;46.29;95387.69;5037668;28;20179;-77
2023/03/29 05:04:08;;;;;;;7.90;4.57;;;;;;;6.97;41.54;95384.00;5036934;28;20262;-78
2023/03/29 05:06:34;;;;;;;10.03;4.90;;;;;;;6.89;40.57;95354.47;5033932;28;20203;-78
2023/03/29 05:09:03;;;;;;;11.63;6.50;;;;;;;7.85;40.91;95386.78;5036748;28;20214;-77
2023/03/29 05:11:29;;;;;;;7.67;4.57;;;;;;;8.23;39.04;95387.47;5038097;28;20261;-77
2023/03/29 05:13:56;;;;;;;8.90;4.70;;;;;;;8.88;37.98;95389.25;5037926;28;20179;-77
2023/03/29 05:16:21;;;;;;;13.10;3.93;;;;;;;9.83;35.33;95388.81;5037870;28;20183;-77
2023/03/29 05:18:47;;;;;;;5.87;3.20;;;;;;;10.05;33.50;95397.41;5035936;28;20210;-77
2023/03/29 05:21:12;;;;;;;3.50;3.20;;;;;;;10.53;32.90;95399.09;5037197;28;20542;-76
2023/03/29 05:23:38;;;;;;;6.13;3.60;;;;;;;9.98;33.46;95404.47;5035892;28;20183;-77
2023/03/29 05:26:06;;;;;;;7.70;3.50;;;;;;;9.21;34.98;95407.94;5037168;28;20178;-77
2023/03/29 05:28:32;;;;;;;20.87;7.77;;;;;;;8.94;34.75;95406.88;5036772;28;20234;-77
2023/03/29 05:31:03;;;;;;;23.13;9.07;;;;;;;9.26;35.98;95407.34;5031886;28;20187;-76
2023/03/29 05:33:30;;;;;;;9.50;4.83;;;;;;;9.82;34.88;95413.47;5037396;28;20180;-76
2023/03/29 05:36:05;;;;;;;5.93;3.50;;;;;;;10.89;32.83;95404.09;5052864;28;20302;-77
2023/03/29 05:38:33;;;;;;;6.73;4.00;;;;;;;12.59;32.33;95408.66;5037104;28;20576;-76
2023/03/29 05:40:59;;;;;;;4.07;3.27;;;;;;;14.46;28.42;95411.38;5037276;28;20561;-77
2023/03/29 05:43:25;;;;;;;8.50;2.90;;;;;;;16.28;26.73;95407.28;5036907;28;20175;-76
2023/03/29 05:45:55;;;;;;;4.75;3.25;;;;;;;16.43;24.30;95411.09;5037459;28;20188;-77
2023/03/29 05:48:22;;;;;;;5.90;2.70;;;;;;;14.22;26.35;95415.66;5037341;28;20195;-77
2023/03/29 05:50:50;;;;;;;3.70;2.90;;;;;;;11.84;29.36;95417.97;5037374;28;20180;-77
2023/03/29 05:53:16;;;;;;;5.13;2.70;;;;;;;10.18;31.83;95400.16;5037240;28;20179;-77
2023/03/29 05:55:42;;;;;;;3.37;2.37;;;;;;;8.60;34.76;95407.50;5037340;28;20180;-77
2023/03/29 05:58:09;;;;;;;4.10;2.53;;;;;;;7.58;38.44;95410.97;5037162;28;20178;-77
2023/03/29 06:00:36;;;;;;;5.87;2.77;;;;;;;6.98;39.33;95411.78;5036987;28;20722;-77
2023/03/29 06:03:02;;;;;;;4.57;3.00;;;;;;;6.86;41.96;95407.94;5036532;28;20172;-77
2023/03/29 06:05:28;;;;;;;3.63;2.43;;;;;;;6.96;38.99;95412.94;5033912;28;20234;-77
2023/03/29 06:07:55;;;;;;;7.60;2.73;;;;;;;6.95;38.85;95409.53;5034417;28;20182;-77
2023/03/29 06:10:22;;;;;;;4.33;3.30;;;;;;;7.30;39.68;95413.34;5034235;28;20172;-77
2023/03/29 06:12:48;;;;;;;4.70;2.30;;;;;;;7.14;39.10;95410.84;5034185;28;20234;-77
2023/03/29 06:15:14;;;;;;;3.13;2.50;;;;;;;6.69;41.51;95395.97;5034486;28;20175;-77
2023/03/29 06:17:40;;;;;;;6.57;3.70;;;;;;;6.79;41.26;95420.09;5034066;28;20935;-77
2023/03/29 06:20:09;;;;;;;6.33;3.00;;;;;;;6.75;40.27;95424.84;5033764;28;20180;-77
2023/03/29 06:22:39;;;;;;;6.37;2.40;;;;;;;6.36;41.07;95408.41;5033938;28;20663;-77
2023/03/29 06:25:06;;;;;;;3.80;2.70;;;;;;;6.85;40.73;95426.44;5033985;28;20671;-77
2023/03/29 06:27:31;;;;;;;6.23;3.73;;;;;;;6.92;40.15;95425.56;5033705;28;20672;-77
2023/03/29 06:29:58;;;;;;;5.50;3.43;;;;;;;6.65;40.55;95405.16;5033694;28;20267;-77
2023/03/29 06:32:24;;;;;;;5.77;3.20;;;;;;;6.40;40.99;95438.44;5033618;28;20195;-77
2023/03/29 06:34:50;;;;;;;6.97;3.90;;;;;;;6.14;41.21;95437.94;5033651;28;20201;-77
2023/03/29 06:37:15;;;;;;;4.13;3.33;;;;;;;5.92;42.19;95442.06;5033990;28;20206;-77
2023/03/29 06:39:41;;;;;;;9.20;3.60;;;;;;;5.75;42.65;95448.28;5033611;28;20230;-77
2023/03/29 06:42:06;;;;;;;7.37;3.90;;;;;;;5.57;42.81;95457.13;5033072;28;20208;-77
2023/03/29 06:44:32;;;;;;;6.40;3.50;;;;;;;5.66;44.55;95461.34;5029778;28;20172;-77
2023/03/29 06:46:58;;;;;;;6.67;2.90;;;;;;;5.66;44.07;95461.34;5033189;28;20579;-77
2023/03/29 06:49:25;;;;;;;8.27;4.47;;;;;;;5.63;42.85;95463.47;5033469;28;20546;-77
2023/03/29 06:51:51;;;;;;;4.00;2.87;;;;;;;5.44;43.17;95467.25;5029865;28;20212;-76
2023/03/29 06:54:17;;;;;;;9.53;3.67;;;;;;;5.95;42.47;95467.88;5029021;28;20160;-77
2023/03/29 06:56:45;;;;;;;5.60;3.07;;;;;;;6.33;43.09;95456.63;5029873;28;20857;-77
2023/03/29 06:59:10;;;;;;;5.63;2.93;;;;;;;6.47;40.21;95425.53;5033097;28;20668;-77
2023/03/29 07:01:36;;;;;;;4.77;3.30;;;;;;;6.50;39.91;95459.97;5032681;28;20274;-76
2023/03/29 07:04:06;;;;;;;10.70;4.00;;;;;;;6.16;39.93;95449.81;5033248;28;20180;-76
2023/03/29 07:06:32;;;;;;;5.03;3.00;;;;;;;6.17;42.78;95459.28;5032885;28;20255;-77
2023/03/29 07:09:00;;;;;;;9.73;5.47;;;;;;;6.04;40.73;95469.47;5033096;28;20665;-77
2023/03/29 07:11:26;;;;;;;2.40;2.10;;;;;;;5.73;40.97;95461.50;5031791;28;20200;-76
2023/03/29 07:13:52;;;;;;;5.50;3.10;;;;;;;5.65;42.45;95475.38;5033182;28;20171;-77
2023/03/29 07:16:18;;;;;;;4.73;2.60;;;;;;;5.40;43.55;95460.72;5031704;28;20182;-76
2023/03/29 07:18:44;;;;;;;7.60;3.10;;;;;;;5.88;42.13;95466.91;5032871;28;20171;-77
2023/03/29 07:21:11;;;;;;;3.53;2.27;;;;;;;5.93;41.05;95460.19;5032758;28;20251;-77
2023/03/29 07:23:37;;;;;;;4.10;2.53;;;;;;;6.11;41.64;95473.03;5032395;28;20241;-76
2023/03/29 07:26:06;;;;;;;7.80;2.93;;;;;;;6.53;42.49;95475.34;5024141;28;20259;-76
2023/03/29 07:28:32;;;;;;;4.87;2.43;;;;;;;6.67;40.85;95469.38;5022006;28;20161;-78
2023/03/29 07:31:07;;;;;;;3.53;2.60;;;;;;;6.46;39.85;95460.50;5027274;28;20684;-78
2023/03/29 07:33:33;;;;;;;4.17;2.33;;;;;;;6.38;39.56;95474.44;5032010;28;20172;-76
2023/03/29 07:35:59;;;;;;;4.03;2.30;;;;;;;6.17;40.11;95451.47;5031473;28;20171;-78
2023/03/29 07:38:25;;;;;;;5.90;3.07;;;;;;;6.11;41.55;95439.06;5032873;28;20236;-77
2023/03/29 07:40:52;;;;;;;4.67;2.40;;;;;;;6.17;40.98;95469.75;5032635;28;20180;-77
2023/03/29 07:43:17;;;;;;;8.07;3.90;;;;;;;6.18;42.44;95460.13;5032399;28;20656;-78
2023/03/29 07:45:43;;;;;;;5.63;3.00;;;;;;;6.46;42.67;95463.94;5032932;28;20310;-78
2023/03/29 07:48:09;;;;;;;10.97;4.73;;;;;;;6.70;39.59;95466.44;5028797;28;20176;-77
2023/03/29 07:50:35;;;;;;;8.07;4.23;;;;;;;6.88;40.10;95447.03;5031471;28;20218;-77
2023/03/29 07:53:01;;;;;;;7.57;4.13;;;;;;;6.82;38.45;95456.41;5028492;28;20192;-77
2023/03/29 07:55:27;;;;;;;6.40;2.17;;;;;;;7.22;39.09;95449.25;5026172;28;20165;-77
2023/03/29 07:57:53;;;;;;;9.27;2.60;;;;;;;7.42;40.11;95451.22;5026285;28;20183;-77
2023/03/29 08:00:19;;;;;;;3.03;2.07;;;;;;;8.17;38.77;95447.69;5031622;28;20660;-76
2023/03/29 08:02:48;;;;;;;7.43;4.00;;;;;;;8.77;37.51;95442.22;5031777;28;20552;-77
2023/03/29 08:05:14;;;;;;;6.47;2.80;;;;;;;8.86;35.25;95433.25;5031571;28;20656;-77
2023/03/29 08:07:45;;;;;;;3.33;1.93;;;;;;;8.78;34.66;95446.47;5034040;28;20176;-77
2023/03/29 08:10:14;;;;;;;5.83;2.73;;;;;;;8.38;36.08;95445.19;5034885;28;20189;-77
2023/03/29 08:12:40;;;;;;;4.73;2.73;;;;;;;8.20;37.25;95416.69;5034059;28;20203;-79
2023/03/29 08:15:07;;;;;;;4.30;2.60;;;;;;;8.41;35.87;95442.19;5031940;28;20187;-77
2023/03/29 08:17:34;;;;;;;9.83;3.87;;;;;;;8.29;35.57;95435.75;5031583;28;20207;-77
2023/03/29 08:20:00;;;;;;;10.73;4.27;;;;;;;8.36;37.46;95433.25;5031221;28;20183;-79
2023/03/29 08:22:25;;;;;;;5.13;2.73;;;;;;;8.41;34.64;95426.44;5031826;28;20164;-79
2023/03/29 08:24:51;;;;;;;3.77;2.50;;;;;;;8.43;36.14;95429.72;5031926;28;20586;-78
2023/03/29 08:27:17;;;;;;;7.93;3.77;;;;;;;8.33;36.03;95421.31;5031647;28;20176;-78
2023/03/29 08:29:43;;;;;;;11.27;4.67;;;;;;;8.51;36.50;95432.22;5031830;28;20163;-78
2023/03/29 08:32:08;;;;;;;4.83;3.23;;;;;;;8.72;37.43;95383.41;5031642;28;20203;-80
2023/03/29 08:34:34;;;;;;;6.37;4.83;;;;;;;9.37;35.60;95428.69;5032288;28;20199;-79
2023/03/29 08:37:00;;;;;;;15.83;10.43;;;;;;;9.77;36.32;95429.00;5031696;28;20190;-79
2023/03/29 08:39:26;;;;;;;5.03;2.80;;;;;;;10.03;32.37;95428.38;5031879;28;20199;-78
2023/03/29 08:42:16;;;;;;;7.57;3.70;;;;;;;10.12;33.03;95433.25;5031545;28;20226;-77
2023/03/29 08:44:50;;;;;;;3.57;2.33;;;;;;;10.57;32.10;95420.56;5031363;28;20234;-77
2023/03/29 08:47:42;;;;;;;3.10;1.70;;;;;;;10.76;30.76;95424.28;5031643;28;20175;-78
2023/03/29 08:50:08;;;;;;;6.57;1.83;;;;;;;10.38;29.08;95431.84;5023743;28;20187;-78
2023/03/29 08:52:39;;;;;;;4.23;1.93;;;;;;;10.06;29.05;95439.31;5031357;28;20208;-78
2023/03/29 08:55:10;;;;;;;3.57;1.80;;;;;;;9.75;29.63;95421.31;5031586;28;20226;-78
2023/03/29 08:57:46;;;;;;;2.90;1.93;;;;;;;9.75;32.04;95429.19;5031776;28;20255;-79
2023/03/29 09:00:35;;;;;;;3.80;2.10;;;;;;;9.53;30.46;95411.81;5031935;28;20186;-78
2023/03/29 09:03:01;;;;;;;5.37;2.03;;;;;;;9.68;32.80;95403.88;5031654;28;20175;-80
2023/03/29 09:05:36;;;;;;;6.07;2.10;;;;;;;9.78;31.11;95422.72;5046940;28;20168;-79
2023/03/29 09:08:02;;;;;;;4.10;1.47;;;;;;;9.66;34.00;95417.19;5031411;28;20191;-78
2023/03/29 09:10:41;;;;;;;3.73;2.53;;;;;;;10.03;32.60;95412.59;5031653;28;20656;-79
2023/03/29 09:13:51;;;;;;;1.90;1.47;;;;;;;10.04;32.36;95409.75;5031663;28;20176;-80
2023/03/29 09:16:29;;;;;;;5.07;2.40;;;;;;;10.64;32.94;95416.13;5017859;28;20198;-80
2023/03/29 09:19:15;;;;;;;3.07;1.63;;;;;;;10.71;30.86;95406.47;5031208;28;20218;-79
2023/03/29 09:22:03;;;;;;;3.90;2.30;;;;;;;10.65;34.91;95414.31;5026355;28;20214;-80
2023/03/29 09:24:54;;;;;;;5.67;1.90;;;;;;;10.48;29.15;95390.97;5031501;28;20199;-78
2023/03/29 09:27:26;;;;;;;3.40;2.00;;;;;;;10.38;29.74;95395.00;5031113;28;20172;-79
2023/03/29 09:30:30;;;;;;;2.20;1.83;;;;;;;9.96;31.11;95404.66;5031504;28;20265;-80
2023/03/29 09:33:02;;;;;;;7.67;2.20;;;;;;;9.95;31.28;95389.06;5031496;28;20203;-80
2023/03/29 09:35:37;;;;;;;4.53;2.17;;;;;;;9.93;30.09;95391.91;5031305;28;20167;-80
2023/03/29 09:38:08;;;;;;;3.03;2.03;;;;;;;9.89;30.41;95397.72;5031741;28;20198;-80
2023/03/29 09:40:41;;;;;;;1.97;1.60;;;;;;;9.89;28.07;95390.66;5030529;28;20550;-79
2023/03/29 09:43:14;;;;;;;3.97;2.37;;;;;;;9.86;29.83;95391.03;5034996;28;20258;-79
2023/03/29 09:45:40;;;;;;;5.57;2.37;;;;;;;9.71;31.69;95398.22;5024406;28;20199;-79
2023/03/29 09:48:18;;;;;;;4.57;2.87;;;;;;;9.57;29.61;95401.75;5034368;28;20176;-78
2023/03/29 09:50:46;;;;;;;7.47;3.00;;;;;;;9.57;29.08;95405.19;5034467;28;20168;-79
2023/03/29 09:53:13;;;;;;;4.90;2.60;;;;;;;9.58;28.94;95383.19;5034549;28;20676;-79
2023/03/29 09:55:39;;;;;;;2.80;1.80;;;;;;;9.47;29.38;95412.59;5034855;28;20167;-79
2023/03/29 09:58:26;;;;;;;3.93;1.80;;;;;;;9.25;28.11;95401.31;5034726;28;20179;-79
2023/03/29 10:00:53;;;;;;;6.37;1.77;;;;;;;8.95;29.15;95384.03;5034669;28;20579;-79
2023/03/29 10:03:22;;;;;;;2.17;1.70;;;;;;;8.94;30.26;95390.28;5034785;28;20546;-78
2023/03/29 10:05:52;;;;;;;6.53;1.70;;;;;;;8.61;30.59;95354.03;5038256;28;20573;-79
2023/03/29 10:08:34;;;;;;;3.10;2.00;;;;;;;8.89;30.86;95393.50;5036903;28;20190;-79
2023/03/29 10:11:06;;;;;;;9.03;2.60;;;;;;;8.81;29.83;95387.56;5035888;28;20269;-79
2023/03/29 10:13:35;;;;;;;4.90;1.67;;;;;;;8.85;30.26;95375.66;5032849;28;20306;-79
2023/03/29 10:16:06;;;;;;;3.60;2.13;;;;;;;8.96;34.01;95380.44;5034577;28;20229;-80
2023/03/29 10:18:32;;;;;;;2.50;1.80;;;;;;;9.05;31.07;95380.13;5032840;28;20566;-79
2023/03/29 10:21:03;;;;;;;2.53;1.30;;;;;;;9.05;30.08;95372.25;5035636;28;20177;-78
2023/03/29 10:23:33;;;;;;;2.23;1.53;;;;;;;9.07;29.52;95377.31;5038686;28;20175;-79
2023/03/29 10:26:03;;;;;;;4.23;1.80;;;;;;;9.06;30.97;95371.25;5040789;28;20194;-79
2023/03/29 10:28:30;;;;;;;3.77;1.90;;;;;;;9.06;29.95;95363.38;5038304;28;20176;-79
2023/03/29 10:30:59;;;;;;;3.10;1.50;;;;;;;8.84;29.39;95355.66;5035089;28;20186;-79
2023/03/29 10:33:30;;;;;;;5.90;2.33;;;;;;;9.06;31.45;95373.88;5033093;28;20178;-79
2023/03/29 10:35:56;;;;;;;3.83;1.70;;;;;;;9.02;29.48;95356.84;5033117;28;20236;-79
2023/03/29 10:38:26;;;;;;;3.80;2.07;;;;;;;9.01;29.97;95357.03;5032962;28;20187;-79
2023/03/29 10:40:53;;;;;;;4.90;2.57;;;;;;;8.98;30.45;95362.69;5032898;28;20926;-79
2023/03/29 10:43:28;;;;;;;3.77;1.53;;;;;;;8.98;29.05;95352.16;5033966;28;20215;-80
2023/03/29 10:45:55;;;;;;;2.37;1.57;;;;;;;8.84;29.09;95345.97;5033423;28;20163;-79
2023/03/29 10:48:29;;;;;;;3.50;2.57;;;;;;;8.73;31.52;95345.69;5037407;28;20189;-80
2023/03/29 10:50:58;;;;;;;3.60;2.20;;;;;;;8.75;30.54;95328.72;5033580;28;20171;-80
2023/03/29 10:53:27;;;;;;;6.23;2.40;;;;;;;8.80;30.98;95347.38;5033274;28;20611;-79
2023/03/29 10:55:59;;;;;;;3.47;1.90;;;;;;;8.73;30.65;95349.13;5033715;28;20229;-79
2023/03/29 10:58:35;;;;;;;6.70;3.00;;;;;;;8.84;31.85;95337.28;5040618;28;20171;-79
2023/03/29 11:01:01;;;;;;;7.20;3.23;;;;;;;8.94;30.44;95338.59;5048223;28;20174;-80
2023/03/29 11:03:40;;;;;;;3.87;2.27;;;;;;;9.00;30.59;95337.03;5036319;28;20176;-81
2023/03/29 11:06:19;;;;;;;3.83;2.43;;;;;;;9.00;31.09;95303.69;5033990;28;20228;-80
2023/03/29 11:08:53;;;;;;;2.80;1.57;;;;;;;9.22;29.65;95322.06;5033271;28;20643;-79
2023/03/29 11:11:52;;;;;;;3.47;1.90;;;;;;;9.26;29.85;95318.03;5033702;28;20188;-80
2023/03/29 11:14:51;;;;;;;3.10;1.53;;;;;;;9.20;31.88;95327.50;5028082;28;20172;-81
2023/03/29 11:17:19;;;;;;;2.80;1.90;;;;;;;9.32;30.56;95328.63;5017530;28;20974;-81
2023/03/29 11:20:02;;;;;;;3.57;1.50;;;;;;;9.32;30.57;95306.78;5035820;28;20180;-79
2023/03/29 11:22:43;;;;;;;3.37;2.10;;;;;;;9.45;30.03;95318.19;5038529;28;20175;-79
2023/03/29 11:25:37;;;;;;;8.70;3.13;;;;;;;9.46;30.36;95317.19;5025190;28;20172;-80
2023/03/29 11:28:28;;;;;;;2.37;1.50;;;;;;;9.48;29.08;95326.69;5029934;28;20168;-81
2023/03/29 11:31:20;;;;;;;5.93;2.17;;;;;;;9.49;30.66;95326.50;5032855;28;20241;-80
2023/03/29 11:33:55;;;;;;;2.23;1.87;;;;;;;9.21;28.53;95330.94;5025254;28;20555;-80
2023/03/29 11:36:41;;;;;;;2.70;1.77;;;;;;;9.13;29.60;95323.19;5023780;28;20167;-80
2023/03/29 11:39:38;;;;;;;5.70;2.67;;;;;;;9.20;32.17;95285.47;5032693;28;20192;-80
2023/03/29 11:42:28;;;;;;;14.43;2.80;;;;;;;9.04;28.50;95306.78;5032431;28;20221;-79
2023/03/29 11:44:57;;;;;;;3.37;1.60;;;;;;;9.24;30.27;95328.75;5032785;28;20180;-80
2023/03/29 11:47:30;;;;;;;3.70;1.90;;;;;;;9.27;30.22;95311.78;5032621;28;20926;-80
2023/03/29 11:50:05;;;;;;;5.77;2.30;;;;;;;9.50;30.62;95308.94;5027732;28;20188;-80
2023/03/29 11:52:38;;;;;;;4.50;2.00;;;;;;;9.34;29.60;95279.28;5032619;28;20180;-80
2023/03/29 11:55:07;;;;;;;2.00;1.70;;;;;;;9.45;28.63;95314.75;5032702;28;20177;-80